Time;durP1;ratioP1;P1;durP2;ratioP2;P2;SDS_P1;SDS_P2;PMS_P1;PMS_P2;Temp;Humidity;BMP_temperature;BMP_pressure;BME280_temperature;BME280_humidity;BME280_pressure;Samples;Min_cycle;Max_cycle;Signal;HPM_P1;HPM_P2
2022/02/05 05:02:11;;;;;;;1.48;0.88;;;3.00;99.90;;;;;;5335068;23;20622;-67
2022/02/05 05:04:43;;;;;;;0.90;0.70;;;2.90;99.90;;;;;;4960911;28;20290;-66
2022/02/05 05:10:01;;;;;;;3.50;1.75;;;2.90;99.90;;;;;;4954264;28;20209;-67
2022/02/05 05:12:35;;;;;;;1.90;0.93;;;2.90;99.90;;;;;;4952846;28;20224;-67
2022/02/05 05:15:30;;;;;;;1.80;1.70;;;3.00;99.90;;;;;;4964292;28;20208;-67
2022/02/05 05:20:51;;;;;;;2.28;2.03;;;3.10;99.90;;;;;;4966168;28;20234;-67
2022/02/05 05:23:17;;;;;;;4.47;2.10;;;3.10;99.90;;;;;;4971052;28;20299;-67
2022/02/05 05:25:44;;;;;;;1.13;1.10;;;3.10;99.90;;;;;;4952745;28;20205;-67
2022/02/05 05:28:11;;;;;;;5.97;1.05;;;3.00;99.90;;;;;;4952611;29;20209;-66
2022/02/05 05:30:38;;;;;;;5.22;1.70;;;3.00;99.90;;;;;;4958595;28;20216;-67
2022/02/05 05:33:06;;;;;;;1.52;1.40;;;3.00;99.90;;;;;;4957730;28;20211;-67
2022/02/05 05:35:33;;;;;;;2.40;1.20;;;3.00;99.90;;;;;;4958184;28;20309;-66
2022/02/05 05:38:00;;;;;;;1.45;1.45;;;3.10;99.90;;;;;;4957074;28;20272;-67
2022/02/05 05:40:26;;;;;;;1.75;1.33;;;3.10;99.90;;;;;;4962817;28;20255;-67
2022/02/05 05:42:59;;;;;;;2.85;1.20;;;3.10;99.90;;;;;;4953421;28;20229;-66
2022/02/05 05:45:38;;;;;;;1.50;1.40;;;3.10;99.90;;;;;;4952370;28;20224;-67
2022/02/05 05:48:10;;;;;;;1.40;0.75;;;3.10;99.90;;;;;;4952616;28;20301;-67
2022/02/05 05:53:18;;;;;;;0.70;0.70;;;3.10;99.90;;;;;;4969291;28;20291;-66
2022/02/05 05:55:46;;;;;;;0.85;0.85;;;3.10;99.90;;;;;;4960035;28;20560;-67
2022/02/05 05:58:15;;;;;;;0.50;0.50;;;3.10;99.90;;;;;;4956293;28;20213;-66
2022/02/05 06:00:43;;;;;;;0.98;0.93;;;3.10;99.90;;;;;;4963806;28;20652;-66
2022/02/05 06:03:11;;;;;;;0.77;0.77;;;3.10;99.90;;;;;;4971546;28;20274;-67
2022/02/05 06:05:38;;;;;;;0.63;0.40;;;3.10;99.90;;;;;;4968187;28;20216;-66
2022/02/05 06:08:05;;;;;;;0.20;0.20;;;3.10;99.90;;;;;;4957544;28;20256;-68
2022/02/05 06:10:33;;;;;;;0.40;0.30;;;3.10;99.90;;;;;;4962986;28;20252;-67
2022/02/05 06:12:59;;;;;;;0.40;0.20;;;3.00;99.90;;;;;;4952615;28;20283;-67
2022/02/05 06:15:26;;;;;;;0.30;0.30;;;3.00;99.90;;;;;;4952851;28;20201;-67
2022/02/05 06:17:53;;;;;;;0.38;0.38;;;3.00;99.90;;;;;;4952159;28;20209;-65
2022/02/05 06:20:22;;;;;;;0.70;0.70;;;2.90;99.90;;;;;;4951775;28;20649;-66
2022/02/05 06:22:48;;;;;;;0.60;0.40;;;2.90;99.90;;;;;;4956320;28;20240;-65
2022/02/05 06:25:15;;;;;;;0.30;0.30;;;2.80;99.90;;;;;;4959204;28;20217;-66
2022/02/05 06:27:42;;;;;;;0.30;0.30;;;2.80;99.90;;;;;;4964697;28;20209;-65
2022/02/05 06:30:09;;;;;;;0.60;0.50;;;2.80;99.90;;;;;;4964193;28;20216;-65
2022/02/05 06:32:36;;;;;;;0.50;0.50;;;2.70;99.90;;;;;;4960426;28;20252;-66
2022/02/05 06:35:03;;;;;;;0.47;0.47;;;2.70;99.90;;;;;;4976194;28;20216;-65
2022/02/05 06:37:31;;;;;;;2.97;0.82;;;2.70;99.90;;;;;;4973919;28;20208;-65
2022/02/05 06:39:58;;;;;;;1.60;0.82;;;2.70;99.90;;;;;;4974977;28;20212;-66
2022/02/05 06:42:24;;;;;;;0.80;0.80;;;2.70;99.90;;;;;;4957464;28;20686;-65
2022/02/05 06:44:51;;;;;;;0.95;0.50;;;2.70;99.90;;;;;;4955921;28;20674;-66
2022/02/05 06:47:18;;;;;;;1.50;0.70;;;2.70;99.90;;;;;;4955361;28;20675;-66
2022/02/05 06:49:44;;;;;;;1.10;1.00;;;2.70;99.90;;;;;;4962406;28;20209;-64
2022/02/05 06:52:11;;;;;;;2.70;1.08;;;2.70;99.90;;;;;;4956098;28;20237;-66
2022/02/05 06:54:39;;;;;;;5.38;0.93;;;2.70;99.90;;;;;;4971868;28;20291;-66
2022/02/05 06:57:06;;;;;;;1.50;0.90;;;2.70;99.90;;;;;;4960767;28;20244;-65
2022/02/05 06:59:33;;;;;;;1.10;1.10;;;2.70;99.90;;;;;;4973350;28;20216;-65
2022/02/05 07:02:00;;;;;;;1.48;0.57;;;2.80;99.90;;;;;;4966182;28;20549;-66
2022/02/05 07:04:27;;;;;;;1.10;0.70;;;2.80;99.90;;;;;;4956786;28;20304;-66
2022/02/05 07:06:57;;;;;;;1.40;1.30;;;2.80;99.90;;;;;;4955565;28;20686;-66
2022/02/05 07:09:26;;;;;;;1.00;1.00;;;2.90;99.90;;;;;;4956358;28;20229;-65
2022/02/05 07:11:56;;;;;;;3.33;0.90;;;2.80;99.90;;;;;;4954434;28;20655;-66
2022/02/05 07:14:26;;;;;;;0.95;0.88;;;2.80;99.90;;;;;;4955082;28;20292;-67
2022/02/05 07:16:59;;;;;;;1.02;1.02;;;2.80;99.90;;;;;;4954783;28;20216;-67
2022/02/05 07:19:36;;;;;;;3.22;1.15;;;2.80;99.90;;;;;;4954991;28;20241;-66
2022/02/05 07:22:03;;;;;;;4.63;1.00;;;2.80;99.90;;;;;;4963527;28;20286;-66
2022/02/05 07:24:50;;;;;;;0.68;0.60;;;2.80;99.90;;;;;;4959043;28;20287;-66
2022/02/05 07:30:03;;;;;;;1.35;1.25;;;2.70;99.90;;;;;;4961070;28;20244;-65
2022/02/05 07:32:30;;;;;;;1.15;1.02;;;2.80;99.90;;;;;;4961373;28;20291;-66
2022/02/05 07:34:57;;;;;;;1.30;1.30;;;2.70;99.90;;;;;;4969246;28;20204;-66
2022/02/05 07:37:24;;;;;;;2.70;1.55;;;2.80;99.90;;;;;;4974514;28;20225;-65
2022/02/05 07:39:50;;;;;;;3.75;1.13;;;2.80;99.90;;;;;;4968580;28;20233;-66
2022/02/05 07:42:19;;;;;;;1.58;1.48;;;2.70;99.90;;;;;;4957190;28;20229;-67
2022/02/05 07:44:48;;;;;;;0.90;0.90;;;2.80;99.90;;;;;;4965067;28;20287;-67
2022/02/05 07:47:16;;;;;;;1.55;1.45;;;2.80;99.90;;;;;;4973778;28;20243;-67
2022/02/05 07:49:43;;;;;;;6.07;1.75;;;2.80;99.90;;;;;;4964220;28;20197;-67
2022/02/05 07:52:11;;;;;;;1.75;1.15;;;2.80;99.90;;;;;;4953900;28;20615;-66
2022/02/05 07:54:38;;;;;;;8.70;1.50;;;2.80;99.90;;;;;;4955554;28;20221;-66
2022/02/05 07:57:06;;;;;;;3.10;1.45;;;2.90;99.90;;;;;;4967187;28;20255;-66
2022/02/05 07:59:34;;;;;;;6.63;1.38;;;2.90;99.90;;;;;;4968005;28;20204;-63
2022/02/05 08:02:01;;;;;;;3.63;1.17;;;2.90;99.90;;;;;;4972198;28;20768;-67
2022/02/05 08:04:27;;;;;;;7.32;1.38;;;3.00;99.90;;;;;;4958875;28;20205;-65
2022/02/05 08:06:57;;;;;;;1.52;1.40;;;3.10;99.90;;;;;;4961357;28;20673;-67
2022/02/05 08:09:28;;;;;;;3.60;1.10;;;3.20;99.90;;;;;;4963818;28;20205;-67
2022/02/05 08:12:00;;;;;;;6.05;1.75;;;3.20;99.90;;;;;;4965188;28;20217;-66
2022/02/05 08:14:28;;;;;;;2.30;1.63;;;3.10;99.90;;;;;;4959475;28;20263;-66
2022/02/05 08:17:01;;;;;;;11.73;2.17;;;3.10;99.90;;;;;;4971031;28;20211;-66
2022/02/05 08:19:28;;;;;;;6.88;1.80;;;3.20;99.90;;;;;;4959153;28;20292;-67
2022/02/05 08:21:55;;;;;;;3.35;2.00;;;3.10;99.90;;;;;;4958556;28;20228;-67
2022/02/05 08:24:22;;;;;;;9.40;2.83;;;3.20;99.90;;;;;;4962509;28;20236;-66
2022/02/05 08:26:49;;;;;;;2.20;2.10;;;3.20;99.90;;;;;;4958894;28;20213;-66
2022/02/05 08:29:17;;;;;;;5.30;4.10;;;3.20;99.90;;;;;;4959794;28;20206;-66
2022/02/05 08:31:44;;;;;;;8.95;3.50;;;3.20;99.90;;;;;;4953096;28;20237;-66
2022/02/05 08:34:12;;;;;;;4.25;2.22;;;3.30;99.90;;;;;;4963556;28;20247;-66
2022/02/05 08:36:42;;;;;;;5.20;2.78;;;3.30;99.90;;;;;;4953405;28;20735;-67
2022/02/05 08:39:10;;;;;;;11.45;3.33;;;3.40;99.90;;;;;;4956835;28;20665;-67
2022/02/05 08:41:37;;;;;;;6.35;2.15;;;3.40;99.90;;;;;;4970601;28;20329;-67
2022/02/05 08:44:04;;;;;;;9.10;2.65;;;3.50;99.90;;;;;;4961598;28;20394;-66
2022/02/05 08:46:30;;;;;;;3.10;2.63;;;3.70;99.90;;;;;;4955982;28;20784;-66
2022/02/05 08:48:57;;;;;;;9.10;2.95;;;3.70;99.90;;;;;;4971607;28;20255;-66
2022/02/05 08:51:25;;;;;;;7.28;3.60;;;3.70;99.90;;;;;;4961376;28;20634;-66
2022/02/05 08:53:53;;;;;;;7.22;2.92;;;3.70;99.90;;;;;;4964978;28;20577;-66
2022/02/05 08:56:21;;;;;;;3.25;2.80;;;3.80;99.90;;;;;;4959238;28;20205;-66
2022/02/05 08:58:48;;;;;;;10.18;3.08;;;3.90;99.90;;;;;;4959330;28;20212;-66
2022/02/05 09:01:19;;;;;;;6.63;2.83;;;4.20;99.90;;;;;;4965215;28;20359;-67
2022/02/05 09:03:57;;;;;;;9.35;5.05;;;4.50;99.90;;;;;;4962511;28;20575;-65
2022/02/05 09:06:28;;;;;;;6.38;4.15;;;4.70;99.90;;;;;;4954248;28;20283;-66
2022/02/05 09:09:07;;;;;;;6.45;3.00;;;4.70;99.90;;;;;;4955429;28;20217;-65
2022/02/05 09:11:38;;;;;;;7.93;4.03;;;4.60;99.90;;;;;;4957277;28;20439;-65
2022/02/05 09:14:16;;;;;;;4.28;2.75;;;4.70;99.90;;;;;;4957395;28;20224;-65
2022/02/05 09:16:44;;;;;;;9.63;3.50;;;4.90;99.90;;;;;;4960755;28;20212;-65
2022/02/05 09:19:12;;;;;;;8.02;2.88;;;4.90;99.90;;;;;;4956167;28;20197;-64
2022/02/05 09:21:40;;;;;;;3.28;2.58;;;4.70;99.90;;;;;;4953214;28;20653;-65
2022/02/05 09:24:07;;;;;;;5.50;2.47;;;4.70;99.90;;;;;;4961174;28;20216;-65
2022/02/05 09:26:36;;;;;;;7.18;3.40;;;4.60;99.90;;;;;;4954968;28;20212;-65
2022/02/05 09:29:12;;;;;;;2.85;2.55;;;4.60;99.90;;;;;;4963611;28;20205;-65
2022/02/05 09:31:38;;;;;;;4.70;2.88;;;4.60;99.90;;;;;;4962592;28;20309;-64
2022/02/05 09:34:05;;;;;;;7.30;2.75;;;4.60;99.90;;;;;;4961373;28;20698;-65
2022/02/05 09:36:33;;;;;;;12.98;3.78;;;4.70;99.90;;;;;;4960505;28;20204;-65
2022/02/05 09:39:01;;;;;;;7.03;2.50;;;4.70;99.90;;;;;;4952468;28;20702;-66
2022/02/05 09:41:27;;;;;;;7.15;3.13;;;4.80;99.90;;;;;;4955020;28;20301;-65
2022/02/05 09:43:54;;;;;;;5.03;2.83;;;4.80;99.90;;;;;;4967032;28;20228;-66
2022/02/05 09:46:22;;;;;;;12.15;3.28;;;4.80;99.90;;;;;;4965543;28;20204;-65
2022/02/05 09:48:51;;;;;;;6.20;3.60;;;4.80;99.90;;;;;;4967591;28;20282;-65
2022/02/05 09:51:20;;;;;;;6.45;3.10;;;4.90;99.90;;;;;;4955535;28;20702;-67
2022/02/05 09:53:49;;;;;;;9.95;3.65;;;5.00;99.90;;;;;;4956467;28;20247;-65
2022/02/05 09:56:17;;;;;;;5.43;3.53;;;5.00;99.90;;;;;;4966635;28;20209;-66
2022/02/05 09:58:44;;;;;;;5.88;3.65;;;5.10;99.90;;;;;;4961814;28;20208;-67
2022/02/05 10:01:19;;;;;;;9.60;4.10;;;5.20;99.90;;;;;;4960117;28;20237;-66
2022/02/05 10:03:48;;;;;;;9.45;4.90;;;5.20;99.90;;;;;;4952062;28;20240;-65
2022/02/05 10:06:18;;;;;;;7.28;5.35;;;5.30;99.90;;;;;;4953469;28;20220;-66
2022/02/05 10:08:47;;;;;;;9.93;4.35;;;5.30;99.90;;;;;;4960761;28;20208;-67
2022/02/05 10:11:14;;;;;;;4.68;3.35;;;5.50;99.90;;;;;;4957665;28;20225;-66
2022/02/05 10:13:42;;;;;;;10.43;6.07;;;5.50;99.90;;;;;;4963309;28;20228;-66
2022/02/05 10:16:09;;;;;;;9.77;3.75;;;5.50;99.90;;;;;;4953728;28;20832;-67
2022/02/05 10:18:38;;;;;;;7.78;3.45;;;5.40;99.90;;;;;;4962885;28;20208;-66
2022/02/05 10:21:21;;;;;;;10.82;5.53;;;5.40;99.90;;;;;;4970730;28;20232;-65
2022/02/05 10:23:56;;;;;;;9.55;3.85;;;5.50;99.90;;;;;;4962949;28;20220;-66
2022/02/05 10:26:35;;;;;;;8.75;3.65;;;5.60;99.90;;;;;;4952749;28;20208;-66
2022/02/05 10:29:07;;;;;;;3.72;3.42;;;5.60;99.90;;;;;;4954049;28;20220;-65
2022/02/05 10:32:01;;;;;;;8.70;3.80;;;5.60;99.90;;;;;;4962955;28;20225;-66
2022/02/05 10:34:30;;;;;;;10.05;3.70;;;5.70;99.90;;;;;;4951827;28;20197;-66
2022/02/05 10:37:09;;;;;;;4.38;3.25;;;5.70;99.90;;;;;;4955147;28;20204;-66
2022/02/05 10:39:52;;;;;;;3.88;2.55;;;5.70;99.90;;;;;;4962064;28;20216;-67
2022/02/05 10:45:07;;;;;;;9.70;4.00;;;5.80;99.90;;;;;;4969936;28;20927;-66
2022/02/05 10:47:52;;;;;;;12.68;3.15;;;6.00;99.90;;;;;;4971340;28;20212;-66
2022/02/05 10:50:21;;;;;;;7.60;5.45;;;6.00;99.90;;;;;;4970862;28;20259;-66
2022/02/05 10:52:57;;;;;;;5.13;4.05;;;6.00;99.90;;;;;;4958710;28;20205;-67
2022/02/05 10:55:41;;;;;;;11.45;4.05;;;6.00;99.90;;;;;;4969123;28;20208;-67
2022/02/05 10:58:19;;;;;;;5.57;2.95;;;6.00;99.90;;;;;;4971180;28;20208;-67
2022/02/05 11:06:15;;;;;;;3.28;2.97;;;6.20;99.90;;;;;;4970787;28;20339;-67
2022/02/05 11:08:42;;;;;;;7.10;2.75;;;6.10;99.90;;;;;;4972735;28;20304;-66
2022/02/05 11:14:05;;;;;;;3.17;2.30;;;6.10;99.90;;;;;;4975064;28;20279;-66
2022/02/05 11:16:58;;;;;;;9.57;2.92;;;6.10;99.90;;;;;;4966584;28;20259;-67
2022/02/05 11:19:25;;;;;;;9.05;3.10;;;6.10;99.90;;;;;;4960464;28;20679;-67
2022/02/05 11:21:52;;;;;;;2.40;2.20;;;6.10;99.90;;;;;;4967133;28;20225;-66
2022/02/05 11:24:25;;;;;;;5.65;2.00;;;6.20;99.90;;;;;;4953930;28;20324;-67
2022/02/05 11:26:53;;;;;;;2.90;2.50;;;6.20;99.90;;;;;;4954283;28;20220;-68
2022/02/05 11:29:32;;;;;;;10.10;3.03;;;6.30;99.90;;;;;;4955036;28;20225;-68
2022/02/05 11:32:23;;;;;;;3.72;2.08;;;6.40;99.90;;;;;;4954647;28;20691;-66
2022/02/05 11:35:06;;;;;;;6.93;2.58;;;6.50;99.90;;;;;;4954648;28;20641;-67
2022/02/05 11:37:48;;;;;;;7.45;2.40;;;6.50;99.90;;;;;;4954089;28;20205;-67
2022/02/05 11:40:15;;;;;;;2.65;2.40;;;6.50;99.90;;;;;;4953591;28;20271;-66
2022/02/05 11:42:41;;;;;;;5.68;2.30;;;6.50;99.90;;;;;;4954302;28;20230;-66
2022/02/05 11:45:31;;;;;;;3.70;2.00;;;6.50;99.90;;;;;;4956704;28;20209;-67
2022/02/05 11:48:41;;;;;;;5.47;3.25;;;6.50;99.90;;;;;;4971983;28;20201;-66
2022/02/05 11:51:11;;;;;;;7.70;2.47;;;6.50;99.90;;;;;;4970309;28;20300;-66
2022/02/05 11:54:14;;;;;;;10.68;5.50;;;6.50;99.90;;;;;;4953877;28;20685;-65
2022/02/05 11:56:53;;;;;;;13.43;5.25;;;6.60;99.90;;;;;;4954141;28;20205;-66
2022/02/05 11:59:23;;;;;;;5.68;2.70;;;6.60;99.90;;;;;;4957740;28;20204;-65
2022/02/05 12:01:50;;;;;;;5.20;3.40;;;6.60;99.90;;;;;;4961787;28;20236;-67
2022/02/05 12:04:22;;;;;;;4.75;2.25;;;6.60;99.90;;;;;;4973141;28;20723;-66
2022/02/05 12:06:52;;;;;;;4.75;2.05;;;6.60;99.90;;;;;;4973467;28;20208;-66
2022/02/05 12:09:41;;;;;;;7.53;2.60;;;6.50;99.90;;;;;;4972795;28;20548;-67
2022/02/05 12:12:39;;;;;;;13.50;2.15;;;6.60;99.90;;;;;;4972910;28;20244;-66
2022/02/05 12:15:21;;;;;;;5.95;2.47;;;6.70;99.90;;;;;;4971493;28;20665;-66
2022/02/05 12:18:13;;;;;;;12.93;2.75;;;6.70;99.90;;;;;;4973071;28;20267;-67
2022/02/05 12:21:04;;;;;;;6.60;2.25;;;6.80;99.90;;;;;;4971659;28;20351;-67
2022/02/05 12:26:46;;;;;;;2.63;2.40;;;6.80;99.90;;;;;;4949348;28;20223;-66
2022/02/05 12:29:29;;;;;;;2.53;2.08;;;6.80;99.90;;;;;;4965622;28;20611;-65
2022/02/05 12:31:56;;;;;;;3.83;2.65;;;6.90;99.90;;;;;;4972440;28;20239;-66
2022/02/05 12:34:24;;;;;;;8.45;2.42;;;6.80;99.90;;;;;;4972796;28;20519;-65
2022/02/05 12:36:54;;;;;;;4.13;1.83;;;6.80;99.90;;;;;;4972775;28;20303;-66
2022/02/05 12:39:29;;;;;;;3.85;2.00;;;6.80;99.90;;;;;;4972407;28;20278;-65
2022/02/05 12:41:58;;;;;;;4.78;3.25;;;6.80;99.90;;;;;;4971909;28;20286;-66
2022/02/05 12:44:28;;;;;;;4.90;2.22;;;6.80;99.90;;;;;;4972594;28;20243;-67
2022/02/05 12:46:59;;;;;;;7.32;2.13;;;6.80;99.90;;;;;;4970666;28;20200;-66
2022/02/05 12:49:30;;;;;;;7.93;2.33;;;6.80;99.90;;;;;;4963400;28;20220;-67
2022/02/05 12:52:00;;;;;;;3.30;1.90;;;6.70;99.90;;;;;;4954306;28;20225;-66
2022/02/05 12:54:30;;;;;;;7.72;2.30;;;6.60;99.90;;;;;;4953903;28;20209;-69
2022/02/05 12:56:59;;;;;;;1.88;1.83;;;6.50;99.90;;;;;;4963641;28;20211;-67
2022/02/05 12:59:30;;;;;;;4.78;1.98;;;6.40;99.90;;;;;;4967006;28;20208;-67
2022/02/05 13:01:59;;;;;;;7.43;2.88;;;6.30;99.90;;;;;;4966690;28;20228;-67
2022/02/05 13:04:27;;;;;;;6.28;2.03;;;6.20;99.90;;;;;;4972171;28;20233;-66
2022/02/05 13:07:08;;;;;;;6.13;2.67;;;6.20;99.90;;;;;;4972386;28;20220;-66
2022/02/05 13:09:38;;;;;;;2.15;1.85;;;6.20;99.90;;;;;;4964557;28;20271;-66
2022/02/05 13:12:07;;;;;;;3.03;2.60;;;6.20;99.90;;;;;;4967505;28;20229;-66
2022/02/05 13:14:39;;;;;;;2.97;2.10;;;6.30;99.90;;;;;;4973143;28;20208;-65
2022/02/05 13:17:10;;;;;;;5.68;2.42;;;6.30;99.90;;;;;;4973536;28;20828;-68
2022/02/05 13:25:39;;;;;;;6.15;2.47;;;6.30;99.90;;;;;;4951992;29;20240;-66
2022/02/05 13:28:13;;;;;;;7.18;1.95;;;6.40;99.90;;;;;;4952636;28;20232;-66
2022/02/05 13:33:42;;;;;;;5.40;2.75;;;6.40;99.90;;;;;;4952397;29;20324;-66
2022/02/05 13:36:13;;;;;;;3.03;2.50;;;6.40;99.90;;;;;;4954451;28;20209;-66
2022/02/05 13:39:00;;;;;;;4.45;2.17;;;6.50;99.90;;;;;;4951990;28;20200;-67
2022/02/05 13:41:30;;;;;;;3.92;2.72;;;6.60;99.90;;;;;;4951984;28;20257;-66
2022/02/05 13:43:57;;;;;;;3.90;2.75;;;6.60;99.90;;;;;;4953198;28;20288;-66
2022/02/05 13:46:24;;;;;;;7.22;3.00;;;6.80;99.90;;;;;;4953173;28;20300;-66
2022/02/05 13:48:51;;;;;;;3.17;1.50;;;7.00;99.90;;;;;;4954153;28;20252;-65
2022/02/05 13:51:18;;;;;;;11.02;2.70;;;7.00;99.90;;;;;;4958188;28;20295;-65
2022/02/05 13:53:55;;;;;;;7.40;2.47;;;7.00;99.90;;;;;;4957512;28;20260;-66
2022/02/05 13:56:22;;;;;;;4.75;2.25;;;7.10;99.90;;;;;;4956377;28;20595;-66
2022/02/05 13:58:49;;;;;;;5.95;2.63;;;7.20;99.90;;;;;;4966540;28;20201;-66
2022/02/05 14:01:29;;;;;;;6.40;3.08;;;7.20;99.90;;;;;;4956186;28;20287;-66
2022/02/05 14:03:56;;;;;;;10.90;3.63;;;7.20;99.90;;;;;;4963244;28;20254;-67
2022/02/05 14:06:23;;;;;;;4.97;3.35;;;7.20;99.90;;;;;;4973176;28;20690;-65
2022/02/05 14:08:54;;;;;;;2.65;2.17;;;7.20;99.90;;;;;;4970337;28;21774;-66
2022/02/05 14:11:27;;;;;;;2.22;1.85;;;7.20;99.90;;;;;;4956459;28;20228;-65
2022/02/05 14:13:58;;;;;;;2.95;2.72;;;7.20;99.90;;;;;;4962862;28;20209;-67
2022/02/05 14:16:30;;;;;;;4.35;1.60;;;7.20;99.90;;;;;;4963028;28;20461;-66
2022/02/05 14:19:00;;;;;;;5.68;2.42;;;7.20;99.90;;;;;;4956814;28;20292;-64
2022/02/05 14:21:35;;;;;;;4.32;2.22;;;7.20;99.90;;;;;;4963745;28;20271;-66
2022/02/05 14:24:05;;;;;;;3.25;2.45;;;7.20;99.90;;;;;;4964918;28;20230;-65
2022/02/05 14:26:41;;;;;;;6.60;2.55;;;7.10;99.90;;;;;;4952878;28;20208;-65
2022/02/05 14:29:08;;;;;;;7.82;2.78;;;7.10;99.90;;;;;;4961858;28;20211;-66
2022/02/05 14:31:44;;;;;;;6.97;2.75;;;7.00;99.90;;;;;;4960081;28;20706;-67
2022/02/05 14:34:19;;;;;;;2.92;1.60;;;6.90;99.90;;;;;;4952154;28;20249;-67
2022/02/05 14:42:19;;;;;;;1.98;1.88;;;6.80;99.90;;;;;;4964576;28;20235;-67
2022/02/05 14:44:46;;;;;;;3.25;2.28;;;6.70;99.90;;;;;;4962775;28;20311;-66
2022/02/05 14:47:13;;;;;;;4.03;1.55;;;6.70;99.90;;;;;;4960846;28;20213;-66
2022/02/05 14:49:40;;;;;;;3.35;1.90;;;6.70;99.90;;;;;;4969903;28;20200;-64
2022/02/05 14:52:10;;;;;;;8.05;2.50;;;6.70;99.90;;;;;;4954913;28;20562;-66
2022/02/05 14:54:39;;;;;;;2.75;2.30;;;6.60;99.90;;;;;;4955206;28;20590;-66
2022/02/05 14:57:07;;;;;;;4.78;2.10;;;6.60;99.90;;;;;;4954873;28;20209;-66
2022/02/05 14:59:33;;;;;;;2.65;2.10;;;6.60;99.90;;;;;;4958111;28;20221;-66
2022/02/05 15:02:00;;;;;;;2.30;2.20;;;6.60;99.90;;;;;;4956022;28;20588;-67
2022/02/05 15:04:27;;;;;;;6.25;2.00;;;6.60;99.90;;;;;;4977513;28;20666;-67
2022/02/05 15:06:55;;;;;;;3.17;1.88;;;6.60;99.90;;;;;;4973494;28;20221;-67
2022/02/05 15:09:21;;;;;;;2.38;1.90;;;6.60;99.90;;;;;;4967631;28;20665;-67
2022/02/05 15:11:49;;;;;;;5.45;2.70;;;6.60;99.90;;;;;;4971216;28;20291;-66
2022/02/05 15:14:17;;;;;;;2.40;2.10;;;6.50;99.90;;;;;;4972068;28;20582;-67
2022/02/05 15:16:44;;;;;;;3.30;1.48;;;6.50;99.90;;;;;;4963546;28;20230;-67
2022/02/05 15:19:10;;;;;;;2.70;2.15;;;6.50;99.90;;;;;;4973686;28;20204;-67
2022/02/05 15:21:39;;;;;;;4.20;2.65;;;6.50;99.90;;;;;;4964233;28;20228;-67
2022/02/05 15:24:07;;;;;;;12.55;6.15;;;6.50;99.90;;;;;;4968465;28;20276;-67
2022/02/05 15:26:35;;;;;;;12.20;6.03;;;6.50;99.90;;;;;;4954217;28;20292;-67
2022/02/05 15:29:05;;;;;;;7.70;6.07;;;6.50;99.90;;;;;;4956836;28;20225;-66
2022/02/05 15:31:32;;;;;;;8.57;3.15;;;6.40;99.90;;;;;;4953805;28;20284;-66
2022/02/05 15:34:01;;;;;;;5.28;2.30;;;6.40;99.90;;;;;;4963572;28;20789;-67
2022/02/05 15:36:33;;;;;;;3.50;2.38;;;6.40;99.90;;;;;;4977907;28;20212;-67
2022/02/05 15:39:13;;;;;;;2.95;2.75;;;6.40;99.90;;;;;;4963987;28;20226;-67
2022/02/05 15:44:26;;;;;;;2.00;1.90;;;6.40;99.90;;;;;;4954308;28;20221;-67
2022/02/05 15:46:53;;;;;;;4.93;2.70;;;6.30;99.90;;;;;;4954501;28;20209;-67
2022/02/05 15:49:20;;;;;;;1.90;1.90;;;6.30;99.90;;;;;;4957367;28;20201;-67
2022/02/05 15:51:47;;;;;;;2.70;2.28;;;6.30;99.90;;;;;;4973703;28;20235;-67
2022/02/05 15:54:14;;;;;;;5.70;2.50;;;6.30;99.90;;;;;;4964887;28;20240;-67
2022/02/05 15:56:45;;;;;;;7.57;3.17;;;6.20;99.90;;;;;;4962537;28;20232;-68
2022/02/05 15:59:16;;;;;;;2.63;2.00;;;6.20;99.90;;;;;;4964187;28;20205;-67
2022/02/05 16:01:45;;;;;;;2.75;2.60;;;6.20;99.90;;;;;;4962882;28;20236;-67
2022/02/05 16:04:12;;;;;;;3.35;2.60;;;6.20;99.90;;;;;;4973418;28;20240;-67
2022/02/05 16:06:39;;;;;;;3.80;3.55;;;6.20;99.90;;;;;;4968315;28;20224;-67
2022/02/05 16:09:06;;;;;;;15.00;6.03;;;6.20;99.90;;;;;;4972915;28;20235;-68
2022/02/05 16:11:33;;;;;;;19.45;9.90;;;6.20;99.90;;;;;;4959176;28;20225;-67
2022/02/05 16:14:00;;;;;;;12.68;6.75;;;6.20;99.90;;;;;;4971684;28;20204;-67
2022/02/05 16:16:27;;;;;;;2.20;2.10;;;6.20;99.90;;;;;;4971704;28;20255;-67
2022/02/05 16:18:55;;;;;;;3.72;2.53;;;6.20;99.90;;;;;;4963613;28;20373;-68
2022/02/05 16:21:22;;;;;;;3.80;2.75;;;6.20;99.90;;;;;;4970315;28;20935;-67
2022/02/05 16:23:50;;;;;;;4.78;2.50;;;6.20;99.90;;;;;;4975837;28;20224;-67
2022/02/05 16:26:17;;;;;;;1.75;1.65;;;6.20;99.90;;;;;;4960944;28;20577;-67
2022/02/05 16:28:44;;;;;;;4.40;2.83;;;6.20;99.90;;;;;;4964748;28;20254;-67
2022/02/05 16:31:10;;;;;;;2.28;2.05;;;6.20;99.90;;;;;;4958011;28;20714;-67
2022/02/05 16:33:40;;;;;;;2.10;2.00;;;6.20;99.90;;;;;;4958490;28;20206;-67
2022/02/05 16:36:10;;;;;;;3.40;2.65;;;6.10;99.90;;;;;;4954226;28;20213;-67
2022/02/05 16:38:40;;;;;;;4.60;1.63;;;6.10;99.90;;;;;;4963822;28;20218;-67
2022/02/05 16:41:07;;;;;;;2.78;2.67;;;6.10;99.90;;;;;;4986832;28;20335;-67
2022/02/05 16:43:36;;;;;;;4.07;2.35;;;6.10;99.90;;;;;;4962904;28;20215;-67
2022/02/05 16:46:03;;;;;;;5.88;2.85;;;6.10;99.90;;;;;;4968409;28;20224;-67
2022/02/05 16:48:33;;;;;;;5.15;2.20;;;6.20;99.90;;;;;;4957852;28;20235;-67
2022/02/05 16:51:00;;;;;;;2.25;2.05;;;6.20;99.90;;;;;;4952691;28;20312;-67
2022/02/05 16:53:28;;;;;;;2.70;2.50;;;6.10;99.90;;;;;;4961107;28;20209;-67
2022/02/05 16:55:55;;;;;;;2.95;2.28;;;6.10;99.90;;;;;;4970575;28;20818;-67
2022/02/05 16:58:22;;;;;;;4.55;2.78;;;6.00;99.90;;;;;;4957839;28;20204;-67
2022/02/05 17:00:51;;;;;;;2.38;2.28;;;6.00;99.90;;;;;;4971143;28;20280;-67
2022/02/05 17:03:18;;;;;;;5.18;2.38;;;6.00;99.90;;;;;;4963248;28;20209;-67
2022/02/05 17:05:45;;;;;;;2.08;1.98;;;5.90;99.90;;;;;;4954705;28;20570;-67
2022/02/05 17:08:13;;;;;;;2.30;2.20;;;5.90;99.90;;;;;;4962365;28;20535;-67
2022/02/05 17:10:43;;;;;;;4.88;3.63;;;5.90;99.90;;;;;;4980359;28;20597;-68
2022/02/05 17:13:10;;;;;;;4.85;3.13;;;5.90;99.90;;;;;;4954941;28;20737;-68
2022/02/05 17:15:37;;;;;;;4.22;2.58;;;5.90;99.90;;;;;;4965585;28;20704;-68
2022/02/05 17:18:10;;;;;;;3.03;2.72;;;5.90;99.90;;;;;;4965606;28;20211;-68
2022/02/05 17:20:43;;;;;;;3.45;3.22;;;5.90;99.90;;;;;;4957863;28;20243;-68
2022/02/05 17:23:09;;;;;;;2.85;2.65;;;5.90;99.90;;;;;;4962780;28;20617;-68
2022/02/05 17:25:37;;;;;;;3.70;3.17;;;5.90;99.90;;;;;;4967794;28;20224;-67
2022/02/05 17:28:07;;;;;;;6.25;3.03;;;5.90;99.90;;;;;;4964537;28;20237;-68
2022/02/05 17:30:34;;;;;;;6.65;3.42;;;5.90;99.90;;;;;;4965463;28;20259;-68
2022/02/05 17:33:05;;;;;;;2.88;2.65;;;5.90;99.90;;;;;;4966143;28;20240;-68
2022/02/05 17:35:36;;;;;;;3.00;2.80;;;5.90;99.90;;;;;;4959985;28;20201;-67
2022/02/05 17:38:04;;;;;;;4.00;3.03;;;5.90;99.90;;;;;;4966597;28;20636;-67
2022/02/05 17:40:31;;;;;;;3.25;2.78;;;5.90;99.90;;;;;;4958025;28;20209;-67
2022/02/05 17:42:57;;;;;;;6.53;3.63;;;5.90;99.90;;;;;;4967050;28;20267;-67
2022/02/05 17:45:26;;;;;;;3.60;3.30;;;5.90;99.90;;;;;;4970224;28;20251;-67
2022/02/05 17:47:53;;;;;;;6.95;3.88;;;5.90;99.90;;;;;;4970548;28;20694;-67
2022/02/05 17:50:20;;;;;;;5.10;3.33;;;5.90;99.90;;;;;;4956093;28;20209;-67
2022/02/05 17:52:46;;;;;;;7.70;3.20;;;5.90;99.90;;;;;;4967073;28;20558;-67
2022/02/05 17:55:15;;;;;;;3.90;3.60;;;5.90;99.90;;;;;;4968162;28;20200;-67
2022/02/05 17:57:45;;;;;;;2.78;2.58;;;5.90;99.90;;;;;;4972104;28;20639;-68
2022/02/05 18:00:13;;;;;;;3.00;2.80;;;5.90;99.90;;;;;;4959201;28;20215;-67
2022/02/05 18:02:41;;;;;;;4.53;3.10;;;5.90;99.90;;;;;;4952490;28;20284;-68
2022/02/05 18:05:11;;;;;;;4.30;3.60;;;5.90;99.90;;;;;;4958848;28;20225;-66
2022/02/05 18:07:45;;;;;;;4.15;3.13;;;5.90;99.90;;;;;;4969081;28;20208;-67
2022/02/05 18:10:31;;;;;;;4.68;3.90;;;5.90;99.90;;;;;;4956719;28;20259;-68
2022/02/05 18:12:58;;;;;;;4.25;3.40;;;5.90;99.90;;;;;;4958332;28;20264;-68
2022/02/05 18:15:25;;;;;;;4.30;3.95;;;5.90;99.90;;;;;;4961217;28;20197;-66
2022/02/05 18:17:53;;;;;;;5.28;3.85;;;5.90;99.90;;;;;;4971733;28;20258;-66
2022/02/05 18:20:20;;;;;;;4.45;3.88;;;5.90;99.90;;;;;;4962924;28;20204;-66
2022/02/05 18:22:46;;;;;;;5.18;3.47;;;5.90;99.90;;;;;;4972951;28;20216;-66
2022/02/05 18:25:13;;;;;;;3.40;3.10;;;5.90;99.90;;;;;;4970065;28;20643;-66
2022/02/05 18:27:41;;;;;;;3.63;3.42;;;6.00;99.90;;;;;;4967188;28;20271;-67
2022/02/05 18:30:13;;;;;;;2.90;2.80;;;6.00;99.90;;;;;;4955007;28;20612;-67
2022/02/05 18:32:40;;;;;;;5.35;3.30;;;6.00;99.90;;;;;;4979342;28;20338;-67
2022/02/05 18:35:08;;;;;;;4.80;4.00;;;6.00;99.90;;;;;;4963839;28;20229;-66
2022/02/05 18:37:35;;;;;;;8.77;4.78;;;6.00;99.90;;;;;;4958347;28;20263;-67
2022/02/05 18:40:02;;;;;;;5.07;4.47;;;6.00;99.90;;;;;;4968191;28;20211;-66
2022/02/05 18:42:32;;;;;;;5.78;3.75;;;6.00;99.90;;;;;;4964526;28;20350;-66
2022/02/05 18:44:58;;;;;;;15.10;4.38;;;6.00;99.90;;;;;;4960986;28;20324;-67
2022/02/05 18:47:25;;;;;;;3.60;3.40;;;6.10;99.90;;;;;;4964157;28;20299;-66
2022/02/05 18:49:51;;;;;;;3.47;3.05;;;6.10;99.90;;;;;;4973186;28;20278;-67
2022/02/05 18:52:19;;;;;;;4.53;3.70;;;6.10;99.90;;;;;;4973042;28;20288;-67
2022/02/05 18:54:46;;;;;;;4.85;4.05;;;6.10;99.90;;;;;;4979082;28;20215;-68